Time;durP1;ratioP1;P1;durP2;ratioP2;P2;SDS_P1;SDS_P2;PMS_P1;PMS_P2;Temp;Humidity;BMP_temperature;BMP_pressure;BME280_temperature;BME280_humidity;BME280_pressure;Samples;Min_cycle;Max_cycle;Signal;HPM_P1;HPM_P2
2022/08/10 00:00:20;;;;;;;9.05;4.70;;;;;;;23.32;46.33;100210.47;5033612;28;20541;-69
2022/08/10 00:02:57;;;;;;;10.98;4.70;;;;;;;23.41;45.97;100241.03;5033559;28;20124;-69
2022/08/10 00:05:24;;;;;;;11.55;4.57;;;;;;;23.41;46.74;100244.56;5033456;28;20037;-69
2022/08/10 00:07:51;;;;;;;15.48;5.45;;;;;;;23.31;46.56;100231.59;5033744;28;20037;-68
2022/08/10 00:10:18;;;;;;;9.35;5.20;;;;;;;23.23;47.55;100229.09;5033301;28;20041;-69
2022/08/10 00:12:44;;;;;;;14.75;4.95;;;;;;;23.23;48.45;100239.66;5033774;28;20048;-68
2022/08/10 00:15:13;;;;;;;10.95;4.85;;;;;;;23.30;48.72;100243.88;5033551;28;20480;-69
2022/08/10 00:17:39;;;;;;;17.10;4.82;;;;;;;23.11;48.68;100190.66;5033336;28;20041;-69
2022/08/10 00:20:05;;;;;;;15.90;5.35;;;;;;;23.37;49.06;100234.94;5033405;28;20036;-70
2022/08/10 00:22:31;;;;;;;8.80;4.63;;;;;;;23.43;48.95;100242.75;5033401;28;20046;-69
2022/08/10 00:24:56;;;;;;;15.50;5.03;;;;;;;23.27;49.48;100207.06;5033303;28;20419;-70
2022/08/10 00:27:27;;;;;;;14.60;5.20;;;;;;;23.17;50.54;100198.47;5033090;28;20103;-69
2022/08/10 00:29:53;;;;;;;15.07;4.88;;;;;;;23.02;51.72;100196.13;5033338;28;20508;-69
2022/08/10 00:32:18;;;;;;;10.77;5.00;;;;;;;23.18;51.87;100229.19;5033295;28;20049;-70
2022/08/10 00:34:44;;;;;;;11.10;5.53;;;;;;;23.09;52.40;100238.09;5033016;28;20557;-69
2022/08/10 00:37:12;;;;;;;15.20;6.30;;;;;;;23.00;52.64;100217.19;5032918;28;20515;-69
2022/08/10 00:39:38;;;;;;;19.33;5.25;;;;;;;22.78;53.47;100195.69;5033042;28;20045;-69
2022/08/10 00:42:08;;;;;;;12.90;5.30;;;;;;;22.96;54.01;100241.84;5032887;28;20049;-68
2022/08/10 00:44:36;;;;;;;12.65;6.35;;;;;;;22.39;54.06;100172.66;5033218;28;20067;-69
2022/08/10 00:47:02;;;;;;;12.40;5.65;;;;;;;22.72;55.57;100235.25;5032685;28;20462;-69
2022/08/10 00:49:27;;;;;;;17.13;5.70;;;;;;;22.76;54.35;100231.66;5032712;28;20099;-69
2022/08/10 00:51:53;;;;;;;11.40;5.57;;;;;;;22.82;54.23;100235.94;5032596;28;20084;-69
2022/08/10 00:54:19;;;;;;;16.30;5.45;;;;;;;22.87;53.73;100240.25;5031903;28;20060;-69
2022/08/10 00:56:44;;;;;;;22.30;6.32;;;;;;;23.01;53.10;100232.09;4981570;28;20052;-69
2022/08/10 00:59:10;;;;;;;12.43;5.50;;;;;;;22.65;53.41;100171.31;5032954;28;20052;-69
2022/08/10 01:01:36;;;;;;;17.65;6.15;;;;;;;22.65;54.85;100236.25;5032523;28;20488;-70
2022/08/10 01:04:03;;;;;;;8.52;5.18;;;;;;;22.57;55.61;100236.38;5032390;28;20396;-70
2022/08/10 01:06:44;;;;;;;16.67;5.75;;;;;;;22.52;56.02;100232.94;5032071;28;20033;-70
2022/08/10 01:09:44;;;;;;;14.73;5.25;;;;;;;22.24;56.10;100231.59;5032488;28;20060;-69
2022/08/10 01:12:23;;;;;;;14.63;5.55;;;;;;;22.26;55.62;100231.56;4951854;29;20051;-70
2022/08/10 01:14:58;;;;;;;8.15;4.72;;;;;;;22.19;55.29;100230.78;4951744;29;20047;-70
2022/08/10 01:17:38;;;;;;;13.77;4.95;;;;;;;22.12;55.35;100229.16;4951821;29;20058;-69
2022/08/10 01:20:18;;;;;;;10.50;5.05;;;;;;;22.04;55.70;100237.13;4951783;29;20047;-70
2022/08/10 01:23:05;;;;;;;8.77;4.97;;;;;;;22.11;55.16;100227.41;4951632;29;20044;-69
2022/08/10 01:25:39;;;;;;;17.50;5.15;;;;;;;22.17;54.50;100229.06;4951570;29;20070;-69
2022/08/10 01:28:29;;;;;;;12.75;4.80;;;;;;;22.25;54.76;100229.81;4951556;29;20194;-70
2022/08/10 01:30:59;;;;;;;13.30;4.82;;;;;;;22.01;51.29;100174.09;4951671;29;20544;-68
2022/08/10 01:33:28;;;;;;;;;;;;;;;22.40;52.21;100223.50;4936013;29;20048;-70
2022/08/10 01:36:01;;;;;;;11.25;4.80;;;;;;;22.35;52.47;100220.03;4951347;29;19946;-69
2022/08/10 01:38:30;;;;;;;12.77;5.22;;;;;;;22.10;54.00;100225.66;4951421;29;20043;-69
2022/08/10 01:41:05;;;;;;;10.27;4.47;;;;;;;21.75;56.21;100229.66;4951312;29;20039;-70
2022/08/10 01:43:33;;;;;;;7.97;4.65;;;;;;;21.38;57.07;100227.44;4904950;29;20134;-70
2022/08/10 01:46:01;;;;;;;9.65;4.75;;;;;;;21.21;58.01;100228.50;4951206;29;20047;-70
2022/08/10 01:48:32;;;;;;;7.70;4.70;;;;;;;21.07;58.11;100223.41;5015884;28;20042;-69
2022/08/10 01:51:03;;;;;;;8.45;4.78;;;;;;;20.94;58.68;100225.25;5014430;28;20042;-69
2022/08/10 01:53:35;;;;;;;12.82;5.05;;;;;;;20.74;59.65;100233.31;5031696;28;20058;-69
2022/08/10 01:56:02;;;;;;;10.73;5.13;;;;;;;20.63;60.18;100224.66;5031309;28;20406;-70
2022/08/10 01:58:30;;;;;;;12.50;5.28;;;;;;;20.29;61.56;100227.53;5031302;28;20034;-69
2022/08/10 02:00:57;;;;;;;8.50;5.03;;;;;;;20.17;62.41;100234.56;5031348;28;20037;-69
2022/08/10 02:03:24;;;;;;;8.35;5.38;;;;;;;20.28;61.75;100216.16;5031462;28;20041;-70
2022/08/10 02:05:54;;;;;;;8.48;4.68;;;;;;;20.35;61.51;100214.41;5031318;28;20041;-70
2022/08/10 02:08:22;;;;;;;;;;;;;;;20.41;61.53;100214.34;5031863;28;20095;-72
2022/08/10 02:10:48;;;;;;;8.57;4.40;;;;;;;20.44;61.69;100203.81;5031433;28;19905;-69
2022/08/10 02:13:16;;;;;;;13.40;5.07;;;;;;;20.54;61.46;100212.47;5030917;28;20045;-68
2022/08/10 02:15:44;;;;;;;7.82;4.47;;;;;;;20.48;61.41;100208.16;5031273;28;20037;-68
2022/08/10 02:18:11;;;;;;;12.52;4.35;;;;;;;20.62;60.48;100186.19;5031209;28;20124;-69
2022/08/10 02:20:46;;;;;;;11.32;4.72;;;;;;;20.75;58.71;100179.97;5031428;28;20048;-71
2022/08/10 02:23:23;;;;;;;9.82;5.00;;;;;;;21.17;57.68;100211.91;5031046;28;20507;-69
2022/08/10 02:25:51;;;;;;;8.07;5.00;;;;;;;21.30;58.04;100212.63;5031300;28;20041;-69
2022/08/10 02:28:20;;;;;;;7.65;4.55;;;;;;;21.36;59.01;100216.06;5031114;28;20037;-69
2022/08/10 02:30:48;;;;;;;13.00;4.87;;;;;;;21.25;58.61;100203.94;5030809;28;20453;-69
2022/08/10 02:33:17;;;;;;;10.55;4.85;;;;;;;20.88;59.63;100153.63;5030779;28;20495;-69
2022/08/10 02:35:44;;;;;;;8.80;5.20;;;;;;;21.38;60.09;100224.81;5030887;28;20083;-69
2022/08/10 02:38:11;;;;;;;8.60;5.57;;;;;;;21.38;59.79;100203.81;5030919;28;20116;-69
2022/08/10 02:40:42;;;;;;;12.90;5.70;;;;;;;21.45;61.19;100226.50;5031044;28;20037;-69
2022/08/10 02:43:28;;;;;;;12.57;5.78;;;;;;;21.44;60.98;100222.97;5030677;28;20038;-70
2022/08/10 02:46:08;;;;;;;12.95;5.95;;;;;;;21.44;61.00;100214.25;5030517;28;20418;-69
2022/08/10 02:48:40;;;;;;;18.35;5.78;;;;;;;21.39;59.34;100211.66;5030596;28;20090;-70
2022/08/10 02:51:13;;;;;;;18.45;5.75;;;;;;;21.34;59.73;100214.34;5030695;28;20045;-69
2022/08/10 02:53:50;;;;;;;14.95;5.20;;;;;;;21.29;60.17;100223.16;5030201;28;20052;-69
2022/08/10 02:56:27;;;;;;;14.57;5.07;;;;;;;21.21;61.13;100212.75;5030502;28;20042;-70
2022/08/10 02:58:59;;;;;;;13.93;4.95;;;;;;;21.28;60.48;100243.31;5012639;28;20033;-69
2022/08/10 03:01:41;;;;;;;14.30;5.10;;;;;;;20.82;62.21;100196.53;5030529;28;20028;-69
2022/08/10 03:04:15;;;;;;;13.27;4.93;;;;;;;20.96;60.82;100233.13;5030543;28;20042;-70
2022/08/10 03:06:46;;;;;;;8.38;4.60;;;;;;;21.19;60.21;100239.91;5030591;28;20037;-70
2022/08/10 03:09:15;;;;;;;8.38;4.90;;;;;;;21.30;61.28;100254.66;5030530;28;20073;-69
2022/08/10 03:11:43;;;;;;;6.03;4.65;;;;;;;21.28;61.59;100258.19;5030363;28;20059;-69
2022/08/10 03:14:10;;;;;;;10.50;5.07;;;;;;;21.15;62.25;100260.94;5030506;28;20037;-70
2022/08/10 03:16:37;;;;;;;8.57;4.70;;;;;;;21.00;63.46;100266.34;5012617;28;20515;-69
2022/08/10 03:19:05;;;;;;;8.80;5.55;;;;;;;20.39;64.74;100194.22;5033346;28;20523;-69
2022/08/10 03:21:33;;;;;;;9.98;5.20;;;;;;;20.45;64.58;100210.81;5034332;28;20041;-69
2022/08/10 03:24:01;;;;;;;12.50;5.60;;;;;;;20.73;63.04;100251.72;5034341;28;20073;-70
2022/08/10 03:26:29;;;;;;;11.73;5.65;;;;;;;20.72;63.15;100265.72;5034300;28;20391;-69
2022/08/10 03:28:55;;;;;;;11.40;5.10;;;;;;;20.75;63.43;100257.78;5034327;28;20045;-71
2022/08/10 03:31:21;;;;;;;12.85;5.80;;;;;;;20.85;64.20;100260.34;4999180;28;20045;-69
2022/08/10 03:33:47;;;;;;;29.27;6.22;;;;;;;20.67;64.83;100268.31;5034109;28;20487;-69
2022/08/10 03:36:12;;;;;;;18.50;5.75;;;;;;;20.24;66.08;100285.22;5034202;28;20038;-67
2022/08/10 03:38:39;;;;;;;17.60;6.20;;;;;;;20.38;66.75;100276.41;5034128;28;20049;-70
2022/08/10 03:41:07;;;;;;;14.27;6.10;;;;;;;19.95;68.77;100294.13;5034201;28;20026;-69
2022/08/10 03:43:33;;;;;;;18.30;6.07;;;;;;;20.15;67.51;100272.16;5034113;28;20026;-69
2022/08/10 03:46:02;;;;;;;19.75;5.78;;;;;;;20.41;66.59;100289.50;5033841;28;20038;-70
2022/08/10 03:48:30;;;;;;;16.65;5.35;;;;;;;20.48;66.70;100284.19;5033845;28;20117;-70
2022/08/10 03:50:57;;;;;;;15.98;5.70;;;;;;;20.63;65.82;100295.47;5032013;28;20390;-71
2022/08/10 03:53:23;;;;;;;13.93;5.13;;;;;;;20.69;66.31;100295.41;5031181;28;20069;-70
2022/08/10 03:55:50;;;;;;;13.45;5.18;;;;;;;20.51;66.19;100243.97;5032620;28;20088;-70
2022/08/10 03:58:16;;;;;;;13.70;5.63;;;;;;;20.52;65.92;100236.09;5033606;28;20092;-69
2022/08/10 04:00:42;;;;;;;18.23;5.70;;;;;;;20.96;64.14;100293.47;5034038;28;20450;-69
2022/08/10 04:03:08;;;;;;;11.88;5.53;;;;;;;21.08;64.10;100290.75;5033658;28;20384;-69
2022/08/10 04:05:34;;;;;;;12.80;6.13;;;;;;;21.07;63.77;100304.78;5033332;28;20025;-68
2022/08/10 04:08:00;;;;;;;14.18;5.13;;;;;;;21.19;63.32;100302.91;5033652;28;20041;-69
2022/08/10 04:10:26;;;;;;;13.85;6.10;;;;;;;21.21;63.86;100309.00;5033547;28;20072;-69
2022/08/10 04:12:52;;;;;;;14.25;4.78;;;;;;;21.15;61.45;100300.31;5033507;28;20472;-67
2022/08/10 04:15:18;;;;;;;16.48;5.40;;;;;;;21.31;61.02;100308.91;5033267;28;20061;-69
2022/08/10 04:17:43;;;;;;;14.13;5.38;;;;;;;21.36;61.11;100306.25;5033325;28;20046;-69
2022/08/10 04:20:19;;;;;;;13.38;4.55;;;;;;;21.39;61.57;100314.06;5033380;28;20519;-69
2022/08/10 04:22:48;;;;;;;15.07;5.57;;;;;;;21.26;62.38;100304.56;5033370;28;20140;-69
2022/08/10 04:25:15;;;;;;;26.85;5.93;;;;;;;21.30;64.80;100324.69;5033356;28;20042;-68
2022/08/10 04:27:42;;;;;;;23.50;6.40;;;;;;;20.88;64.95;100261.19;5033301;28;20033;-69
2022/08/10 04:30:08;;;;;;;24.10;6.18;;;;;;;21.37;64.75;100331.63;5031844;28;20056;-70
2022/08/10 04:32:36;;;;;;;21.15;6.63;;;;;;;21.08;67.15;100330.13;5032957;28;20025;-68
2022/08/10 04:35:05;;;;;;;23.10;7.38;;;;;;;21.06;67.57;100334.53;5033311;28;20052;-69
2022/08/10 04:37:33;;;;;;;17.55;7.75;;;;;;;21.16;66.00;100330.06;5033004;28;20036;-69
2022/08/10 04:39:59;;;;;;;12.77;7.20;;;;;;;21.14;66.14;100330.06;5032815;28;20033;-69
2022/08/10 04:42:25;;;;;;;18.77;8.32;;;;;;;20.99;64.68;100338.09;5032768;28;20433;-69
2022/08/10 04:44:51;;;;;;;23.20;10.80;;;;;;;20.73;66.36;100335.66;5032843;28;20037;-69
2022/08/10 04:47:16;;;;;;;21.35;11.50;;;;;;;20.65;67.13;100339.16;5026267;28;20562;-71
2022/08/10 04:49:41;;;;;;;36.22;20.55;;;;;;;20.56;67.50;100340.97;5022042;28;20044;-71
2022/08/10 04:52:07;;;;;;;61.17;38.47;;;;;;;20.16;70.07;100293.16;5014930;28;20459;-70
2022/08/10 04:54:32;;;;;;;70.53;41.55;;;;;;;20.26;69.97;100338.53;5032395;28;20435;-74
2022/08/10 04:56:58;;;;;;;52.42;27.73;;;;;;;20.48;69.01;100344.50;5032853;28;20530;-69
2022/08/10 04:59:23;;;;;;;39.47;21.02;;;;;;;20.63;68.00;100330.44;5032910;28;20037;-69
2022/08/10 05:01:49;;;;;;;39.58;19.25;;;;;;;20.73;69.16;100333.88;5032991;28;20041;-70
2022/08/10 05:04:14;;;;;;;36.35;12.98;;;;;;;20.87;67.72;100338.16;4981484;28;20045;-70
2022/08/10 05:06:40;;;;;;;33.17;11.73;;;;;;;20.95;67.71;100321.47;5032302;28;20174;-71
2022/08/10 05:09:05;;;;;;;24.67;9.20;;;;;;;20.98;67.21;100331.09;5032450;28;20033;-69
2022/08/10 05:11:31;;;;;;;23.58;8.82;;;;;;;21.04;66.60;100319.69;5032279;28;20091;-70
2022/08/10 05:13:56;;;;;;;22.85;9.80;;;;;;;20.50;66.69;100219.50;5013455;28;20520;-70
2022/08/10 05:16:21;;;;;;;32.25;10.00;;;;;;;21.24;66.65;100337.88;5012278;28;20045;-70
2022/08/10 05:18:47;;;;;;;26.67;9.98;;;;;;;21.37;65.06;100331.63;5012517;28;20034;-69
2022/08/10 05:21:12;;;;;;;25.85;10.05;;;;;;;21.54;64.81;100330.56;5012505;28;20104;-74
2022/08/10 05:23:38;;;;;;;24.67;9.13;;;;;;;21.59;64.63;100315.66;5012262;28;20034;-70
2022/08/10 05:26:04;;;;;;;25.00;8.48;;;;;;;21.78;63.70;100316.31;5012101;28;20077;-69
2022/08/10 05:28:29;;;;;;;31.58;8.57;;;;;;;22.07;64.92;100329.09;5012326;28;20034;-70
2022/08/10 05:30:55;;;;;;;24.15;7.38;;;;;;;22.25;66.28;100327.13;5012020;28;20470;-70
2022/08/10 05:33:20;;;;;;;14.02;7.07;;;;;;;22.33;65.33;100330.53;5012348;28;20038;-69
2022/08/10 05:35:45;;;;;;;11.82;6.97;;;;;;;22.33;66.03;100320.00;5012420;28;20050;-69
2022/08/10 05:38:13;;;;;;;12.45;6.75;;;;;;;22.48;65.88;100323.31;5012162;28;20036;-70
2022/08/10 05:40:40;;;;;;;8.10;5.40;;;;;;;22.66;63.76;100330.94;5011517;28;20049;-74
2022/08/10 05:43:06;;;;;;;9.23;5.40;;;;;;;22.77;63.68;100329.00;4999037;28;20037;-70
2022/08/10 05:45:31;;;;;;;9.95;4.93;;;;;;;22.98;65.48;100328.69;5027387;28;20507;-75
2022/08/10 05:47:57;;;;;;;10.82;5.03;;;;;;;23.12;64.55;100331.97;5028228;28;20080;-68
2022/08/10 05:50:26;;;;;;;11.20;5.05;;;;;;;23.38;65.21;100328.03;5031422;28;20061;-67
2022/08/10 05:52:53;;;;;;;7.65;4.63;;;;;;;23.20;63.15;100277.44;5031448;28;20038;-67
2022/08/10 05:55:18;;;;;;;11.32;4.50;;;;;;;23.41;62.68;100286.72;5031138;28;20393;-68
2022/08/10 05:57:45;;;;;;;13.05;5.03;;;;;;;23.94;61.08;100335.78;5031329;28;20107;-69
2022/08/10 06:00:14;;;;;;;9.75;4.15;;;;;;;24.05;62.71;100338.16;5031622;28;20059;-69
2022/08/10 06:02:43;;;;;;;10.25;4.25;;;;;;;24.06;60.12;100303.00;5031383;28;20045;-68
2022/08/10 06:05:19;;;;;;;6.80;4.20;;;;;;;24.34;60.96;100329.63;4996279;28;20037;-69
2022/08/10 06:08:17;;;;;;;8.40;4.32;;;;;;;24.39;59.12;100327.75;5031222;28;20033;-69
2022/08/10 06:10:44;;;;;;;11.52;4.18;;;;;;;24.54;59.72;100323.03;5030550;28;20133;-69
2022/08/10 06:15:59;;;;;;;6.88;4.35;;;;;;;24.80;57.75;100322.44;5031268;28;20041;-69
2022/08/10 06:18:25;;;;;;;8.90;3.90;;;;;;;24.88;57.48;100316.97;5031047;28;20034;-74
2022/08/10 06:20:51;;;;;;;10.57;4.40;;;;;;;24.93;57.79;100307.16;5030789;28;20307;-69
2022/08/10 06:23:17;;;;;;;10.15;4.43;;;;;;;25.11;57.29;100313.75;5031121;28;20068;-69
2022/08/10 06:25:43;;;;;;;8.18;4.22;;;;;;;25.16;57.92;100313.59;5030642;28;20068;-69
2022/08/10 06:28:13;;;;;;;7.25;4.30;;;;;;;25.28;56.86;100309.78;5030898;28;20064;-69
2022/08/10 06:30:40;;;;;;;6.82;4.43;;;;;;;25.04;56.75;100264.63;5030938;28;20141;-69
2022/08/10 06:33:08;;;;;;;6.13;4.32;;;;;;;25.27;58.01;100285.16;5030720;28;20025;-70
2022/08/10 06:35:55;;;;;;;10.18;4.60;;;;;;;25.20;58.46;100260.66;5008504;28;20041;-69
2022/08/10 06:38:24;;;;;;;6.25;4.00;;;;;;;25.60;56.91;100310.72;5008850;28;20037;-70
2022/08/10 06:40:54;;;;;;;5.15;4.30;;;;;;;25.71;57.00;100305.13;5008721;28;20054;-69
2022/08/10 06:43:22;;;;;;;10.00;4.00;;;;;;;25.20;56.96;100218.38;5008588;28;20046;-70
2022/08/10 06:45:54;;;;;;;7.55;4.30;;;;;;;25.52;56.43;100265.97;5008757;28;20068;-69
2022/08/10 06:48:31;;;;;;;6.85;4.07;;;;;;;25.54;56.79;100255.41;5008423;28;20129;-69
2022/08/10 06:51:01;;;;;;;6.80;4.30;;;;;;;25.90;57.80;100300.19;5008154;28;20125;-70
2022/08/10 06:53:33;;;;;;;9.30;4.55;;;;;;;25.97;56.63;100294.66;5007501;28;20543;-69
2022/08/10 06:56:03;;;;;;;9.38;4.22;;;;;;;25.72;55.81;100239.00;5008326;28;20096;-70
2022/08/10 06:58:35;;;;;;;7.35;4.82;;;;;;;25.79;56.89;100231.75;5008451;28;20042;-70
2022/08/10 07:01:04;;;;;;;10.05;5.20;;;;;;;26.31;55.83;100298.09;5008426;28;20045;-69
2022/08/10 07:06:54;;;;;;;9.77;7.03;;;;;;;26.63;55.11;100306.75;5944310;22;20278;-68
2022/08/10 07:09:20;;;;;;;9.13;4.80;;;;;;;26.71;53.87;100285.34;4991230;28;20038;-69
2022/08/10 07:11:49;;;;;;;6.72;4.07;;;;;;;26.95;54.16;100287.22;4991569;28;20418;-68
2022/08/10 07:14:17;;;;;;;9.02;4.72;;;;;;;27.09;53.02;100288.50;4991515;28;20070;-70
2022/08/10 07:16:46;;;;;;;7.32;4.45;;;;;;;27.17;52.35;100289.09;4990120;28;20038;-69
2022/08/10 07:19:12;;;;;;;7.95;4.13;;;;;;;27.35;50.79;100282.28;4991408;28;20046;-70
2022/08/10 07:21:40;;;;;;;6.55;4.15;;;;;;;27.56;52.60;100279.81;4991458;28;20096;-69
2022/08/10 07:24:08;;;;;;;8.45;4.95;;;;;;;27.57;50.56;100279.75;4991774;28;20390;-68
2022/08/10 07:26:36;;;;;;;10.25;4.90;;;;;;;27.55;51.65;100272.78;4991441;28;20469;-69
2022/08/10 07:29:05;;;;;;;9.40;4.40;;;;;;;27.54;53.23;100269.28;4957033;28;20050;-70
2022/08/10 07:31:31;;;;;;;8.60;4.57;;;;;;;27.58;50.77;100278.81;4991368;28;20046;-68
2022/08/10 07:33:59;;;;;;;9.85;4.32;;;;;;;27.67;50.93;100277.63;4991388;28;20046;-69
2022/08/10 07:36:26;;;;;;;17.63;5.50;;;;;;;27.89;53.07;100280.34;4991259;28;20035;-70
2022/08/10 07:38:54;;;;;;;9.43;4.38;;;;;;;27.96;49.84;100282.75;4995772;28;20049;-69
2022/08/10 07:41:22;;;;;;;28.90;6.78;;;;;;;28.03;48.63;100281.59;5003459;28;20030;-69
2022/08/10 07:43:51;;;;;;;27.63;7.85;;;;;;;27.94;50.15;100280.16;4992983;28;20034;-69
2022/08/10 07:46:21;;;;;;;8.90;4.30;;;;;;;27.94;49.29;100280.16;5010474;28;20030;-69
2022/08/10 07:48:49;;;;;;;7.43;4.20;;;;;;;27.98;49.79;100276.47;5010368;28;20034;-69
2022/08/10 07:51:18;;;;;;;12.82;4.57;;;;;;;28.00;48.21;100253.41;5010566;28;20045;-69
2022/08/10 07:53:54;;;;;;;11.60;4.15;;;;;;;28.00;48.44;100282.59;5010661;28;20042;-69
2022/08/10 07:56:25;;;;;;;7.28;3.90;;;;;;;28.08;48.79;100277.00;5010350;28;20033;-69
2022/08/10 07:59:02;;;;;;;6.68;3.92;;;;;;;28.33;46.11;100278.69;5006841;28;20070;-71
2022/08/10 08:01:31;;;;;;;6.55;3.88;;;;;;;28.49;46.44;100278.94;4990576;28;20034;-68
2022/08/10 08:03:59;;;;;;;;;;;;;;;28.47;44.56;100276.31;4992194;28;20038;-69
2022/08/10 08:06:25;;;;;;;10.55;3.97;;;;;;;28.46;45.66;100273.72;4994557;28;19976;-70
2022/08/10 08:08:51;;;;;;;7.10;3.80;;;;;;;28.53;44.33;100257.47;4987421;28;20070;-68
2022/08/10 08:11:19;;;;;;;16.85;5.43;;;;;;;28.54;44.95;100269.84;5007048;28;20532;-66
2022/08/10 08:14:07;;;;;;;7.38;3.90;;;;;;;28.51;45.28;100274.41;5006862;28;20432;-68
2022/08/10 08:16:35;;;;;;;10.85;4.95;;;;;;;28.54;46.63;100271.63;4959112;28;20490;-68
2022/08/10 08:19:02;;;;;;;7.65;4.50;;;;;;;28.56;46.78;100283.94;4953062;29;20043;-68
2022/08/10 08:21:28;;;;;;;7.25;3.97;;;;;;;28.72;46.53;100268.25;4952994;29;20122;-69
2022/08/10 08:23:55;;;;;;;6.50;3.92;;;;;;;28.89;45.21;100262.19;4961778;28;20035;-70
2022/08/10 08:26:21;;;;;;;9.65;3.75;;;;;;;28.82;44.46;100247.44;4972190;28;20042;-68
2022/08/10 08:28:49;;;;;;;6.82;3.97;;;;;;;28.83;46.53;100227.94;4972119;28;20489;-69
2022/08/10 08:31:17;;;;;;;9.18;4.20;;;;;;;28.82;45.87;100212.91;4971271;28;20039;-70
2022/08/10 08:33:44;;;;;;;9.32;3.90;;;;;;;29.09;43.89;100262.28;4958185;28;20054;-71
2022/08/10 08:36:14;;;;;;;5.78;3.50;;;;;;;29.25;45.06;100255.38;4950685;29;20106;-71
2022/08/10 08:38:41;;;;;;;16.83;4.97;;;;;;;29.29;42.30;100256.97;4944490;29;20402;-70
2022/08/10 08:41:41;;;;;;;18.77;5.20;;;;;;;29.30;43.35;100257.84;4952536;29;20402;-71
2022/08/10 08:44:34;;;;;;;5.93;3.92;;;;;;;29.02;44.37;100211.19;4952410;29;20589;-72
2022/08/10 08:47:11;;;;;;;23.55;5.35;;;;;;;29.43;43.09;100237.72;4958135;28;20138;-71
2022/08/10 08:50:06;;;;;;;15.60;5.25;;;;;;;29.52;41.50;100250.63;4974108;28;20430;-69
2022/08/10 08:53:00;;;;;;;14.68;3.83;;;;;;;29.58;43.75;100264.56;4997537;28;20057;-69
2022/08/10 08:55:52;;;;;;;8.13;4.13;;;;;;;29.62;42.54;100252.84;5012841;28;20065;-68
2022/08/10 08:58:38;;;;;;;7.82;3.90;;;;;;;29.64;42.75;100257.16;4989922;28;20077;-70
2022/08/10 09:01:30;;;;;;;5.72;3.97;;;;;;;29.77;42.36;100248.63;4891598;29;20060;-69
2022/08/10 09:04:27;;;;;;;6.05;3.20;;;;;;;29.83;41.44;100249.22;4851883;29;20830;-73
2022/08/10 09:07:45;;;;;;;6.80;3.58;;;;;;;30.06;42.69;100254.38;4893303;29;20040;-70
2022/08/10 09:10:36;;;;;;;4.75;3.50;;;;;;;30.27;41.44;100249.81;4863759;29;20042;-71
2022/08/10 09:13:28;;;;;;;5.68;3.33;;;;;;;29.81;41.13;100160.59;4857009;29;20074;-69
2022/08/10 09:16:02;;;;;;;5.95;3.42;;;;;;;30.25;40.95;100236.59;4818751;29;20052;-69
2022/08/10 09:18:51;;;;;;;8.15;3.85;;;;;;;30.13;41.03;100219.44;4819452;29;20533;-69
2022/08/10 09:21:29;;;;;;;;;;;;;;;30.34;41.17;100236.16;4833157;29;20105;-67
2022/08/10 09:24:14;;;;;;;8.07;3.60;;;;;;;30.32;39.90;100202.53;4837821;29;20420;-70
2022/08/10 09:26:40;;;;;;;9.13;3.50;;;;;;;30.65;40.00;100247.09;4837371;29;20058;-69
2022/08/10 09:29:09;;;;;;;6.57;3.42;;;;;;;30.68;38.35;100219.44;4837771;29;20114;-69
2022/08/10 09:31:42;;;;;;;;;;;;;;;30.74;39.24;100233.28;4838268;29;20057;-67
2022/08/10 09:34:26;;;;;;;4.93;3.40;;;;;;;30.79;39.33;100239.28;4837485;29;20423;-70
2022/08/10 09:37:42;;;;;;;7.90;3.97;;;;;;;30.70;38.65;100236.22;4835070;29;20446;-68
2022/08/10 09:40:18;;;;;;;7.22;3.40;;;;;;;30.53;40.18;100245.94;4836387;29;20109;-69
2022/08/10 09:42:52;;;;;;;5.82;3.55;;;;;;;30.35;38.95;100194.38;4837953;29;20046;-68
2022/08/10 09:45:39;;;;;;;5.65;3.25;;;;;;;30.87;39.71;100240.66;4833138;29;20042;-70
2022/08/10 09:48:34;;;;;;;5.70;3.28;;;;;;;31.17;39.27;100248.03;4838605;29;20049;-69
2022/08/10 09:51:36;;;;;;;5.55;3.63;;;;;;;31.38;38.03;100241.56;4838353;29;20046;-69
2022/08/10 09:54:27;;;;;;;5.22;3.28;;;;;;;31.61;35.89;100250.13;4892061;29;20141;-70
2022/08/10 09:57:29;;;;;;;6.70;3.50;;;;;;;31.80;37.02;100238.47;4893772;29;20496;-70
2022/08/10 10:00:13;;;;;;;7.15;3.63;;;;;;;31.81;35.55;100214.34;4854810;29;20061;-69
2022/08/10 10:03:23;;;;;;;7.95;3.40;;;;;;;32.16;37.22;100237.31;4854476;29;20053;-69
2022/08/10 10:06:04;;;;;;;17.35;4.45;;;;;;;32.12;35.25;100235.78;4806092;29;20130;-69
2022/08/10 10:08:37;;;;;;;22.52;6.22;;;;;;;32.02;37.05;100228.28;4819292;29;20051;-67
2022/08/10 10:11:16;;;;;;;25.30;6.18;;;;;;;31.80;36.46;100174.41;4819019;29;20134;-67
2022/08/10 10:14:19;;;;;;;9.00;4.00;;;;;;;32.25;36.34;100224.34;4819457;29;20066;-70
2022/08/10 10:17:03;;;;;;;8.90;3.25;;;;;;;32.59;34.75;100227.69;4784413;29;20054;-71
2022/08/10 10:19:36;;;;;;;6.03;3.45;;;;;;;32.70;33.72;100219.03;4785883;29;20418;-71
2022/08/10 10:22:40;;;;;;;6.20;3.20;;;;;;;32.65;33.57;100226.47;4807283;29;20038;-72
2022/08/10 10:25:21;;;;;;;10.05;3.33;;;;;;;32.62;36.64;100228.47;4788214;29;20046;-72
2022/08/10 10:28:09;;;;;;;12.98;3.30;;;;;;;32.49;36.72;100231.00;4817930;29;20134;-73
2022/08/10 10:30:44;;;;;;;7.20;3.67;;;;;;;32.58;36.06;100214.44;4818610;29;20068;-75
2022/08/10 10:33:41;;;;;;;8.88;3.83;;;;;;;32.26;36.35;100171.75;4818256;29;20529;-72
2022/08/10 10:36:10;;;;;;;23.52;5.70;;;;;;;32.22;36.74;100220.97;4859536;29;20064;-74
2022/08/10 10:38:38;;;;;;;18.77;5.47;;;;;;;32.31;37.40;100222.25;4873559;29;20108;-76
2022/08/10 10:41:26;;;;;;;10.23;3.75;;;;;;;32.37;37.03;100225.41;4858168;29;20138;-75
2022/08/10 10:44:04;;;;;;;5.80;3.60;;;;;;;32.57;36.25;100215.38;4910942;29;20077;-74
2022/08/10 10:46:55;;;;;;;28.00;6.03;;;;;;;32.26;36.77;100187.78;4910801;29;20084;-74
2022/08/10 10:49:45;;;;;;;8.20;3.50;;;;;;;32.05;35.77;100220.13;4911118;29;20036;-75
2022/08/10 10:52:40;;;;;;;11.52;3.65;;;;;;;31.62;36.94;100236.69;4943126;28;20034;-74
2022/08/10 10:55:21;;;;;;;8.73;3.80;;;;;;;31.75;37.50;100230.69;4972699;28;20531;-74
2022/08/10 10:57:58;;;;;;;8.63;3.75;;;;;;;31.93;37.54;100231.50;4990642;28;20046;-74
2022/08/10 11:00:28;;;;;;;5.60;3.63;;;;;;;32.07;36.11;100215.53;4990060;28;20066;-75
2022/08/10 11:03:31;;;;;;;12.95;4.30;;;;;;;32.05;36.31;100221.91;4990294;28;20477;-75
2022/08/10 11:06:13;;;;;;;8.98;3.60;;;;;;;31.97;36.82;100225.03;4990201;28;20030;-74
2022/08/10 11:08:47;;;;;;;8.15;3.53;;;;;;;32.30;36.24;100228.53;4989325;28;20053;-75
2022/08/10 11:11:19;;;;;;;7.65;3.20;;;;;;;32.53;34.44;100220.03;4989564;28;20058;-75
2022/08/10 11:14:04;;;;;;;7.90;3.20;;;;;;;32.66;34.21;100209.50;4939676;28;20050;-74
2022/08/10 11:16:59;;;;;;;7.72;3.55;;;;;;;32.67;35.13;100208.53;4989823;28;20034;-75
2022/08/10 11:20:02;;;;;;;6.95;3.45;;;;;;;32.79;33.06;100212.31;4971577;28;20038;-75
2022/08/10 11:22:58;;;;;;;7.18;3.20;;;;;;;33.00;34.04;100203.91;4990049;28;20038;-76
2022/08/10 11:25:40;;;;;;;6.65;3.58;;;;;;;32.83;33.62;100205.81;4990037;28;20085;-76
2022/08/10 11:28:32;;;;;;;11.10;3.92;;;;;;;32.78;34.14;100199.91;4990138;28;20070;-75
2022/08/10 11:31:38;;;;;;;7.05;3.40;;;;;;;32.85;34.15;100208.41;4989805;28;20034;-76
2022/08/10 11:34:39;;;;;;;7.03;3.30;;;;;;;32.74;33.72;100195.66;4910667;29;20429;-75
2022/08/10 11:37:20;;;;;;;16.85;5.65;;;;;;;32.83;35.07;100204.97;4890075;29;20071;-76
2022/08/10 11:40:05;;;;;;;5.25;3.38;;;;;;;33.02;33.54;100210.03;4893742;29;20040;-76
2022/08/10 11:42:50;;;;;;;15.82;5.15;;;;;;;32.99;35.02;100212.94;4895397;29;20147;-75
2022/08/10 11:45:19;;;;;;;7.88;3.92;;;;;;;33.26;34.14;100212.16;4895204;29;20040;-76
2022/08/10 11:47:51;;;;;;;15.35;4.82;;;;;;;32.88;34.17;100202.88;4894998;29;20555;-71
2022/08/10 11:50:56;;;;;;;15.63;4.10;;;;;;;32.77;34.50;100197.31;4895517;29;20048;-71
2022/08/10 11:53:48;;;;;;;7.50;3.70;;;;;;;32.29;34.76;100163.59;4895017;29;20072;-77
2022/08/10 11:56:23;;;;;;;8.32;3.33;;;;;;;32.69;35.01;100195.09;4876362;29;20080;-77